Time;durP1;ratioP1;P1;durP2;ratioP2;P2;SDS_P1;SDS_P2;PMS_P1;PMS_P2;Temp;Humidity;BMP_temperature;BMP_pressure;BME280_temperature;BME280_humidity;BME280_pressure;Samples;Min_cycle;Max_cycle;Signal;HPM_P1;HPM_P2
2023/05/30 00:02:03;;;;;;;9.90;2.30;;;;;;;13.64;42.53;101418.09;105587;1297;66930;-84
2023/05/30 00:04:49;;;;;;;5.40;2.30;;;;;;;13.61;42.63;101415.71;105611;1297;71359;-83
2023/05/30 00:07:35;;;;;;;7.00;2.50;;;;;;;13.55;42.71;101417.89;105505;1297;59846;-84
2023/05/30 00:10:21;;;;;;;;;;;;;;;13.50;42.78;101421.10;105526;1297;59109;-84
2023/05/30 00:13:07;;;;;;;7.60;2.10;;;;;;;13.47;42.81;101424.27;105569;1299;74004;-84
2023/05/30 00:15:56;;;;;;;6.00;2.10;;;;;;;13.43;42.88;101423.47;105654;1297;67235;-84
2023/05/30 00:18:43;;;;;;;12.60;2.20;;;;;;;13.37;42.95;101428.41;105474;1297;71865;-84
2023/05/30 00:21:29;;;;;;;11.20;2.80;;;;;;;13.32;43.05;101429.16;105610;1297;58971;-84
2023/05/30 00:24:15;;;;;;;10.50;2.30;;;;;;;13.26;43.17;101428.91;105577;1298;59127;-83
2023/05/30 00:27:01;;;;;;;6.70;2.50;;;;;;;13.21;43.28;101431.58;105608;1297;73374;-84
2023/05/30 00:29:47;;;;;;;6.70;2.20;;;;;;;13.15;43.31;101435.09;105471;1297;68975;-83
2023/05/30 00:32:34;;;;;;;4.70;2.20;;;;;;;13.12;43.42;101434.77;105454;1298;72390;-83
2023/05/30 00:35:20;;;;;;;6.70;2.50;;;;;;;13.07;43.41;101434.67;105460;1297;59345;-83
2023/05/30 00:38:06;;;;;;;8.20;2.60;;;;;;;13.07;43.48;101438.13;105564;1297;59075;-84
2023/05/30 00:40:52;;;;;;;5.80;2.20;;;;;;;13.06;43.52;101441.43;105663;1297;73617;-83
2023/05/30 00:43:38;;;;;;;5.20;1.80;;;;;;;12.98;43.60;101438.45;105467;1297;67649;-84
2023/05/30 00:46:29;;;;;;;7.90;2.20;;;;;;;12.91;43.71;101439.39;105466;1297;71372;-84
2023/05/30 00:49:15;;;;;;;7.80;2.10;;;;;;;12.84;43.79;101437.06;105621;1297;59019;-84
2023/05/30 00:52:02;;;;;;;4.50;2.40;;;;;;;12.84;43.90;101435.34;105507;1296;59232;-84
2023/05/30 00:54:48;;;;;;;6.00;2.20;;;;;;;12.80;43.99;101433.31;105680;1296;74294;-84
2023/05/30 00:57:34;;;;;;;9.70;2.30;;;;;;;12.74;44.06;101430.45;105519;1297;69231;-84
2023/05/30 01:00:22;;;;;;;8.40;2.60;;;;;;;12.69;44.22;101431.54;105626;1297;72305;-83
2023/05/30 01:03:09;;;;;;;4.50;2.20;;;;;;;12.65;44.29;101430.72;105504;1297;59096;-83
2023/05/30 01:05:56;;;;;;;3.30;1.80;;;;;;;12.62;44.31;101431.79;105687;1296;59057;-84
2023/05/30 01:08:42;;;;;;;5.30;2.10;;;;;;;12.59;44.46;101436.65;105525;1297;74084;-84
2023/05/30 01:11:53;;;;;;;4.60;2.40;;;;;;;12.57;44.49;101439.63;105608;1297;69525;-84
2023/05/30 01:14:49;;;;;;;8.00;2.40;;;;;;;12.53;44.54;101440.17;105543;1297;72438;-83
2023/05/30 01:17:50;;;;;;;8.50;2.20;;;;;;;12.52;44.67;101444.52;105510;1297;59477;-84
2023/05/30 01:20:44;;;;;;;7.90;2.40;;;;;;;12.45;44.70;101444.27;105487;1298;59992;-84
2023/05/30 01:24:15;;;;;;;4.50;2.30;;;;;;;12.41;44.80;101443.63;105640;1296;74476;-84
2023/05/30 01:27:13;;;;;;;9.10;2.40;;;;;;;12.37;44.92;101439.16;105626;1297;67332;-85
2023/05/30 01:30:00;;;;;;;7.50;2.00;;;;;;;12.33;44.95;101443.54;105575;1297;72480;-86
2023/05/30 01:32:46;;;;;;;8.20;2.20;;;;;;;12.30;45.09;101443.56;105634;1296;59380;-86
2023/05/30 01:35:32;;;;;;;5.70;2.30;;;;;;;12.29;45.12;101445.65;105594;1298;59586;-86
2023/05/30 01:38:18;;;;;;;7.50;2.20;;;;;;;12.27;45.13;101442.73;105530;1297;74592;-85
2023/05/30 01:41:27;;;;;;;6.10;2.40;;;;;;;12.23;45.19;101440.52;105554;1298;67493;-85
2023/05/30 01:44:52;;;;;;;4.70;2.20;;;;;;;12.14;45.29;101441.46;105626;1296;71481;-85
2023/05/30 01:47:43;;;;;;;7.80;2.30;;;;;;;12.01;45.35;101442.79;105457;1299;59403;-86
2023/05/30 01:50:39;;;;;;;6.10;2.40;;;;;;;11.92;45.42;101440.48;105594;1296;60209;-85
2023/05/30 01:53:31;;;;;;;7.70;2.60;;;;;;;11.85;45.56;101446.92;105521;1296;75265;-85
2023/05/30 01:56:18;;;;;;;6.60;2.40;;;;;;;11.75;45.60;101448.52;105626;1296;67197;-85
2023/05/30 01:59:07;;;;;;;5.00;2.10;;;;;;;11.66;45.64;101447.73;105557;1296;72801;-85
2023/05/30 02:01:55;;;;;;;4.40;2.30;;;;;;;11.55;45.77;101446.58;105633;1296;59035;-86
2023/05/30 02:04:41;;;;;;;9.80;2.50;;;;;;;11.50;45.90;101446.27;105640;1296;59359;-86
2023/05/30 02:07:27;;;;;;;8.60;2.30;;;;;;;11.42;45.87;101448.07;105648;1297;74540;-86
2023/05/30 02:10:13;;;;;;;3.80;2.30;;;;;;;11.33;46.01;101441.06;105668;1297;68685;-86
2023/05/30 02:12:59;;;;;;;6.10;2.40;;;;;;;11.26;46.07;101436.61;105573;1297;71394;-85
2023/05/30 02:15:45;;;;;;;13.60;2.30;;;;;;;11.18;46.16;101437.86;105494;1297;58997;-85
2023/05/30 02:18:31;;;;;;;6.70;2.50;;;;;;;11.09;46.18;101439.11;105538;1297;59493;-85
2023/05/30 02:21:17;;;;;;;6.70;3.10;;;;;;;11.00;46.38;101442.77;105367;1298;316467;-85
2023/05/30 02:24:03;;;;;;;6.60;2.30;;;;;;;10.91;46.39;101442.66;105562;1298;67193;-86
2023/05/30 02:26:49;;;;;;;4.90;2.10;;;;;;;10.87;46.44;101441.65;105598;1296;71967;-86
2023/05/30 02:29:36;;;;;;;5.80;2.10;;;;;;;10.81;46.46;101448.05;105520;1296;59238;-85
2023/05/30 02:32:22;;;;;;;4.70;1.80;;;;;;;10.73;46.48;101455.67;105550;1297;59712;-85
2023/05/30 02:35:08;;;;;;;4.50;2.20;;;;;;;10.60;46.53;101458.46;105600;1297;73459;-85
2023/05/30 02:37:55;;;;;;;7.50;1.90;;;;;;;10.45;46.67;101456.77;105443;1297;68923;-85
2023/05/30 02:40:41;;;;;;;7.10;2.50;;;;;;;10.37;46.65;101458.54;105599;1297;72563;-85
2023/05/30 02:43:27;;;;;;;10.00;2.70;;;;;;;10.33;46.80;101459.23;105439;1297;59308;-85
2023/05/30 02:46:13;;;;;;;6.00;2.50;;;;;;;10.29;46.91;101462.68;105443;1297;59164;-86
2023/05/30 02:49:00;;;;;;;9.00;2.50;;;;;;;10.25;47.00;101466.83;105455;1298;73390;-85
2023/05/30 02:51:46;;;;;;;8.70;2.30;;;;;;;10.23;47.04;101466.99;105583;1297;68505;-85
2023/05/30 02:54:32;;;;;;;7.50;2.80;;;;;;;10.21;47.04;101464.92;105536;1297;72265;-85
2023/05/30 02:57:21;;;;;;;10.00;2.60;;;;;;;10.15;46.93;101461.45;105680;1297;59434;-85
2023/05/30 03:00:09;;;;;;;5.80;2.30;;;;;;;10.12;47.21;101464.04;105528;1297;59062;-85
2023/05/30 03:02:55;;;;;;;6.60;2.10;;;;;;;10.04;47.27;101473.01;105605;1296;75157;-85
2023/05/30 03:05:42;;;;;;;7.80;2.30;;;;;;;9.97;47.23;101471.96;105493;1297;66809;-85
2023/05/30 03:08:30;;;;;;;7.20;2.10;;;;;;;9.93;47.48;101478.51;105657;1296;70757;-86
2023/05/30 03:11:16;;;;;;;5.80;2.10;;;;;;;9.91;47.45;101479.71;105659;1296;59190;-85
2023/05/30 03:14:02;;;;;;;5.90;2.20;;;;;;;9.86;47.50;101481.80;105543;1297;59070;-85
2023/05/30 03:16:48;;;;;;;6.00;2.20;;;;;;;9.81;47.49;101481.45;105596;1296;72190;-85
2023/05/30 03:19:34;;;;;;;5.50;2.00;;;;;;;9.79;47.62;101479.90;105512;1297;67517;-85
2023/05/30 03:22:20;;;;;;;6.10;2.50;;;;;;;9.77;47.62;101483.86;105454;1297;73084;-85
2023/05/30 03:25:07;;;;;;;9.60;3.10;;;;;;;9.78;47.78;101484.55;105502;1297;59693;-86
2023/05/30 03:27:53;;;;;;;;;;;;;;;9.76;47.75;101490.23;105689;1296;59161;-85
2023/05/30 03:30:39;;;;;;;9.50;2.40;;;;;;;9.74;47.89;101493.84;105589;1298;74439;-86
2023/05/30 03:33:28;;;;;;;9.30;2.50;;;;;;;9.75;47.88;101491.44;105638;1296;66770;-86
2023/05/30 03:36:14;;;;;;;4.80;2.20;;;;;;;9.74;47.89;101490.75;105505;1297;72301;-86
2023/05/30 03:39:00;;;;;;;6.60;2.20;;;;;;;9.78;48.00;101489.55;105438;1297;59188;-86
2023/05/30 03:41:45;;;;;;;13.30;3.20;;;;;;;9.79;48.09;101489.55;105555;1296;59050;-86
2023/05/30 03:44:32;;;;;;;6.20;2.10;;;;;;;9.76;48.22;101489.55;105566;1296;74161;-86
2023/05/30 03:47:18;;;;;;;6.10;2.70;;;;;;;9.74;48.27;101490.92;105652;1296;67960;-86
2023/05/30 03:50:04;;;;;;;5.70;2.60;;;;;;;9.76;48.46;101490.23;105632;1296;71173;-86
2023/05/30 03:52:50;;;;;;;6.00;2.20;;;;;;;9.79;48.52;101486.28;105599;1296;59337;-86
2023/05/30 03:55:36;;;;;;;7.70;2.90;;;;;;;9.85;48.67;101485.08;105566;1296;59746;-86
2023/05/30 03:58:22;;;;;;;9.20;3.00;;;;;;;9.90;48.73;101484.54;105546;1298;73113;-86
2023/05/30 04:01:08;;;;;;;12.40;2.60;;;;;;;9.96;48.80;101487.46;105579;1296;67225;-86
2023/05/30 04:03:54;;;;;;;6.30;2.90;;;;;;;10.04;48.87;101491.77;94438;1297;5004994;-86
2023/05/30 04:06:40;;;;;;;7.60;2.90;;;;;;;10.19;49.02;101496.95;105366;1297;59233;-86
2023/05/30 04:09:26;;;;;;;9.10;2.90;;;;;;;10.41;49.06;101495.40;105546;1297;59500;-86
2023/05/30 04:12:12;;;;;;;8.50;3.10;;;;;;;10.58;49.23;101498.46;105651;1296;73413;-86
2023/05/30 04:14:58;;;;;;;6.80;2.90;;;;;;;10.62;49.19;101498.12;105658;1296;67326;-86
2023/05/30 04:17:45;;;;;;;5.60;3.20;;;;;;;10.68;49.17;101499.48;105624;1296;71106;-86
2023/05/30 04:20:31;;;;;;;;;;;;;;;10.76;49.20;101498.43;105515;1296;59246;-86
2023/05/30 04:23:17;;;;;;;8.50;2.50;;;;;;;10.79;49.31;101497.38;105619;1297;59232;-87
2023/05/30 04:26:04;;;;;;;6.10;2.90;;;;;;;10.82;49.36;101501.34;105478;1296;75111;-86
2023/05/30 04:28:52;;;;;;;9.50;2.80;;;;;;;10.88;49.54;101503.74;105439;1298;68540;-87
2023/05/30 04:31:38;;;;;;;6.00;2.70;;;;;;;10.92;49.65;101505.45;105537;1297;73013;-87
2023/05/30 04:34:24;;;;;;;13.00;2.90;;;;;;;11.00;49.69;101511.27;105544;1296;59100;-87
2023/05/30 04:37:17;;;;;;;13.10;4.10;;;;;;;11.10;49.60;101512.77;105635;1296;59093;-86
2023/05/30 04:40:12;;;;;;;10.50;3.50;;;;;;;11.25;49.85;101511.17;105630;1296;74183;-86
2023/05/30 04:42:59;;;;;;;11.00;2.90;;;;;;;11.34;49.82;101516.84;105457;1297;67865;-90
2023/05/30 04:45:49;;;;;;;14.90;3.00;;;;;;;11.41;49.86;101519.73;105390;1297;72435;-85
2023/05/30 04:48:36;;;;;;;13.10;3.30;;;;;;;11.52;49.89;101513.95;105409;1297;58926;-85
2023/05/30 04:51:23;;;;;;;10.00;3.00;;;;;;;11.62;49.92;101512.86;105455;1297;59001;-85
2023/05/30 04:54:09;;;;;;;12.80;3.20;;;;;;;11.72;49.94;101518.14;105487;1296;74340;-85
2023/05/30 04:56:55;;;;;;;9.50;3.50;;;;;;;11.86;49.89;101519.30;105470;1297;67777;-85
2023/05/30 04:59:41;;;;;;;13.10;2.70;;;;;;;12.03;49.89;101517.77;105565;1296;71187;-85
2023/05/30 05:02:28;;;;;;;13.50;2.70;;;;;;;12.24;49.94;101516.57;105542;1297;59447;-85
2023/05/30 05:05:14;;;;;;;11.20;3.20;;;;;;;12.52;49.92;101521.67;105530;1297;59810;-85
2023/05/30 05:08:01;;;;;;;29.50;4.20;;;;;;;12.99;49.98;101523.40;105518;1297;73202;-85
2023/05/30 05:10:47;;;;;;;9.60;2.60;;;;;;;13.67;49.89;101523.58;105649;1297;68674;-86
2023/05/30 05:13:34;;;;;;;9.60;2.60;;;;;;;14.48;49.56;101522.60;105503;1297;72783;-85
2023/05/30 05:16:20;;;;;;;7.30;2.30;;;;;;;15.31;49.33;101522.20;105658;1297;58975;-86
2023/05/30 05:19:06;;;;;;;10.30;2.40;;;;;;;16.10;49.03;101522.82;105505;1297;59622;-86
2023/05/30 05:21:52;;;;;;;10.30;3.10;;;;;;;16.87;48.74;101525.17;105516;1296;73413;-86
2023/05/30 05:24:38;;;;;;;13.60;2.90;;;;;;;17.59;48.45;101530.20;105680;1296;66267;-86
2023/05/30 05:27:26;;;;;;;8.30;2.20;;;;;;;18.32;48.33;101529.41;105652;1296;71489;-86
2023/05/30 05:30:12;;;;;;;8.60;2.50;;;;;;;18.95;47.92;101532.48;105495;1295;58981;-86
2023/05/30 05:32:58;;;;;;;;;;;;;;;19.47;47.85;101534.52;105413;1297;60132;-86
2023/05/30 05:35:48;;;;;;;7.30;2.60;;;;;;;19.88;47.55;101531.67;105596;1297;74034;-84
2023/05/30 05:38:34;;;;;;;9.10;3.10;;;;;;;20.25;47.15;101530.52;105647;1297;68672;-84
2023/05/30 05:41:20;;;;;;;7.90;3.40;;;;;;;20.59;46.89;101530.14;105486;1296;71199;-84
2023/05/30 05:44:06;;;;;;;9.00;3.20;;;;;;;20.93;46.67;101530.20;105654;1296;59474;-84
2023/05/30 05:46:52;;;;;;;9.40;3.70;;;;;;;21.22;46.43;101538.19;105483;1297;59521;-84
2023/05/30 05:49:38;;;;;;;6.40;2.60;;;;;;;21.68;46.45;101537.08;105630;1297;74795;-84
2023/05/30 05:52:25;;;;;;;7.60;3.00;;;;;;;22.09;46.14;101545.10;105610;1297;67457;-84
2023/05/30 05:55:11;;;;;;;;;;;;;;;22.39;45.91;101549.41;105535;1297;71312;-84
2023/05/30 05:57:57;;;;;;;8.30;2.90;;;;;;;22.68;45.73;101547.75;105642;1297;59467;-84
2023/05/30 06:00:43;;;;;;;6.60;3.10;;;;;;;22.97;45.41;101554.45;105582;1297;60190;-84
2023/05/30 06:03:29;;;;;;;8.50;2.80;;;;;;;23.18;45.41;101556.88;105610;1296;73350;-84
2023/05/30 06:06:15;;;;;;;7.40;2.30;;;;;;;23.51;45.19;101558.26;105661;1296;67175;-84
2023/05/30 06:09:01;;;;;;;9.90;2.70;;;;;;;23.82;44.88;101564.63;105626;1297;71927;-84
2023/05/30 06:11:47;;;;;;;6.80;2.70;;;;;;;24.12;44.69;101566.91;105379;1297;59186;-84
2023/05/30 06:14:34;;;;;;;6.70;2.80;;;;;;;24.38;44.20;101568.07;105585;1296;60041;-84
2023/05/30 06:17:20;;;;;;;6.40;2.50;;;;;;;24.61;43.79;101570.94;105515;1297;74568;-84
2023/05/30 06:20:07;;;;;;;7.90;3.40;;;;;;;24.92;43.42;101576.44;105436;1297;67648;-84
2023/05/30 06:22:53;;;;;;;10.90;3.90;;;;;;;25.16;42.91;101576.60;105544;1297;71311;-84
2023/05/30 06:25:39;;;;;;;8.80;3.10;;;;;;;25.45;42.64;101579.91;105500;1297;59107;-84
2023/05/30 06:28:25;;;;;;;6.50;2.50;;;;;;;25.86;42.23;101579.38;105637;1296;58899;-84
2023/05/30 06:31:11;;;;;;;9.80;2.80;;;;;;;26.16;41.98;101582.02;105346;1298;73413;-84
2023/05/30 06:33:57;;;;;;;3.50;2.00;;;;;;;26.80;41.80;101578.75;105605;1297;68344;-84
2023/05/30 06:36:43;;;;;;;9.40;2.30;;;;;;;27.44;41.27;101582.91;105628;1296;71367;-84
2023/05/30 06:39:30;;;;;;;7.80;2.30;;;;;;;27.95;41.12;101583.26;105530;1297;59422;-84
2023/05/30 06:42:16;;;;;;;5.80;2.40;;;;;;;28.56;40.67;101585.91;105520;1298;59027;-84
2023/05/30 06:45:03;;;;;;;5.40;1.80;;;;;;;28.92;40.44;101589.89;105383;1297;314536;-84
2023/05/30 06:47:49;;;;;;;5.50;2.10;;;;;;;28.86;40.21;101594.65;105620;1296;69390;-84
2023/05/30 06:50:35;;;;;;;3.50;1.70;;;;;;;28.70;39.89;101597.80;105467;1296;72335;-84
2023/05/30 06:53:21;;;;;;;;;;;;;;;28.98;39.41;101600.30;105599;1296;59023;-84
2023/05/30 06:56:07;;;;;;;4.30;1.80;;;;;;;29.47;38.83;101599.02;105624;1296;59846;-84
2023/05/30 06:58:54;;;;;;;3.50;1.50;;;;;;;30.19;38.13;101598.26;105650;1296;73996;-84
2023/05/30 07:01:41;;;;;;;4.40;1.60;;;;;;;30.99;37.41;101598.91;105557;1297;69839;-84
2023/05/30 07:04:27;;;;;;;3.10;1.10;;;;;;;31.80;36.74;101601.34;105515;1298;72511;-84
2023/05/30 07:07:13;;;;;;;3.60;1.20;;;;;;;32.42;36.23;101603.86;105532;1297;59723;-84
2023/05/30 07:09:59;;;;;;;2.00;1.40;;;;;;;32.93;35.81;101604.14;105505;1297;59914;-84
2023/05/30 07:12:45;;;;;;;4.70;1.20;;;;;;;32.93;34.61;101612.48;105571;1297;73855;-83
2023/05/30 07:15:31;;;;;;;;;;;;;;;33.55;34.73;101615.02;105515;1297;67458;-83
2023/05/30 07:18:17;;;;;;;5.00;1.30;;;;;;;33.76;34.35;101617.48;105443;1297;72661;-84
2023/05/30 07:21:03;;;;;;;;;;;;;;;33.53;34.40;101618.50;105589;1297;59356;-84
2023/05/30 07:23:49;;;;;;;2.90;1.70;;;;;;;33.84;34.42;101616.73;105433;1297;58677;-84
2023/05/30 07:26:36;;;;;;;26.50;3.20;;;;;;;33.05;33.58;101609.88;105387;1299;73193;-84
2023/05/30 07:29:22;;;;;;;3.30;1.60;;;;;;;32.41;33.21;101614.38;105494;1297;68352;-84
2023/05/30 07:32:07;;;;;;;;;;;;;;;32.62;32.06;101616.86;105537;1297;72463;-84
2023/05/30 07:34:53;;;;;;;1.70;1.20;;;;;;;32.08;31.90;101611.35;105629;1296;59018;-84
2023/05/30 07:37:39;;;;;;;;;;;;;;;31.44;31.76;101608.73;105508;1297;59488;-84
2023/05/30 07:40:25;;;;;;;4.10;1.40;;;;;;;31.03;31.58;101613.55;105483;1297;75018;-84
2023/05/30 07:43:11;;;;;;;6.80;2.00;;;;;;;31.87;30.88;101615.01;105429;1297;67521;-87
2023/05/30 07:45:57;;;;;;;2.10;1.50;;;;;;;33.57;30.04;101612.56;105469;1303;72063;-85
2023/05/30 07:48:43;;;;;;;;;;;;;;;34.97;28.86;101614.86;105582;1297;59222;-85
2023/05/30 07:51:30;;;;;;;1.90;1.20;;;;;;;35.99;28.70;101612.43;105465;1297;59772;-85
2023/05/30 07:54:16;;;;;;;2.30;1.70;;;;;;;36.73;27.94;101614.09;105452;1297;74530;-86
2023/05/30 07:57:02;;;;;;;;;;;;;;;37.78;27.89;101612.37;105119;1299;533105;-86
2023/05/30 07:59:48;;;;;;;2.90;1.90;;;;;;;38.83;27.67;101608.83;105277;1300;72553;-86
2023/05/30 08:02:35;;;;;;;5.70;1.90;;;;;;;39.78;26.96;101609.23;105411;1297;59733;-87
2023/05/30 08:05:21;;;;;;;1.80;1.70;;;;;;;40.50;26.22;101608.03;105489;1297;59519;-86
2023/05/30 08:08:07;;;;;;;2.70;2.10;;;;;;;41.13;26.00;101603.69;105464;1297;75694;-86
2023/05/30 08:10:53;;;;;;;3.40;1.90;;;;;;;41.86;25.68;101607.55;105424;1297;69071;-87
2023/05/30 08:13:39;;;;;;;2.80;2.00;;;;;;;42.23;24.73;101605.15;105448;1297;71485;-86
2023/05/30 08:16:26;;;;;;;2.50;2.40;;;;;;;42.50;24.11;101599.56;105437;1297;59235;-86
2023/05/30 08:19:12;;;;;;;5.60;2.50;;;;;;;42.95;23.75;101603.44;105501;1297;60271;-87
2023/05/30 08:21:58;;;;;;;4.70;2.90;;;;;;;43.17;22.72;101601.98;105586;1297;72920;-86
2023/05/30 08:24:44;;;;;;;3.30;3.00;;;;;;;43.43;22.35;101603.64;105489;1297;67706;-87
2023/05/30 08:27:31;;;;;;;3.80;2.40;;;;;;;43.83;21.79;101601.35;105534;1296;71294;-87
2023/05/30 08:30:17;;;;;;;4.60;3.20;;;;;;;44.48;21.48;101603.31;105529;1296;58909;-87
2023/05/30 08:33:03;;;;;;;4.60;3.40;;;;;;;44.88;21.03;101597.17;105448;1297;59405;-87
2023/05/30 08:35:49;;;;;;;9.90;3.80;;;;;;;45.31;20.33;101597.15;105508;1297;74006;-87
2023/05/30 08:38:35;;;;;;;6.20;3.30;;;;;;;45.47;19.84;101597.96;105484;1297;67550;-87
2023/05/30 08:41:22;;;;;;;4.80;4.40;;;;;;;45.70;19.44;101596.79;105492;1296;71372;-87
2023/05/30 08:44:08;;;;;;;6.80;3.90;;;;;;;46.31;19.06;101600.02;105370;1303;59144;-87
2023/05/30 08:46:55;;;;;;;5.50;3.80;;;;;;;46.55;18.72;101600.15;105554;1296;59078;-87
2023/05/30 08:49:45;;;;;;;4.20;3.90;;;;;;;46.51;18.08;101593.81;105553;1297;75057;-87
2023/05/30 08:52:32;;;;;;;4.60;3.60;;;;;;;46.34;17.72;101597.42;105509;1297;60372;-86
2023/05/30 08:55:23;;;;;;;3.90;3.40;;;;;;;45.14;17.07;101592.48;105347;1296;73643;-87
2023/05/30 08:58:35;;;;;;;30.70;5.70;;;;;;;41.78;17.00;101588.23;105412;1299;59118;-87
2023/05/30 09:01:22;;;;;;;4.60;2.40;;;;;;;38.40;17.03;101585.70;105562;1297;59541;-86
2023/05/30 09:04:09;;;;;;;11.10;1.90;;;;;;;35.68;16.73;101582.65;105445;1296;74380;-85
2023/05/30 09:06:57;;;;;;;4.00;1.90;;;;;;;33.21;16.71;101578.16;105420;1297;70646;-85
2023/05/30 09:09:44;;;;;;;2.00;1.40;;;;;;;31.40;16.83;101583.18;105474;1296;71922;-84
2023/05/30 09:12:30;;;;;;;3.50;1.60;;;;;;;29.84;16.97;101586.58;105395;1296;59465;-85
2023/05/30 09:15:17;;;;;;;2.30;1.50;;;;;;;28.59;17.10;101587.08;105446;1296;58784;-84
2023/05/30 09:18:03;;;;;;;4.60;1.60;;;;;;;27.70;17.34;101581.52;105494;1297;74409;-84
2023/05/30 09:20:50;;;;;;;;;;;;;;;26.97;17.55;101580.54;105320;1297;68108;-84
2023/05/30 09:23:36;;;;;;;2.10;1.50;;;;;;;26.17;17.48;101586.19;105471;1297;71681;-84
2023/05/30 09:26:22;;;;;;;4.50;1.30;;;;;;;25.58;17.66;101584.71;105386;1296;59290;-84
2023/05/30 09:29:12;;;;;;;1.60;1.10;;;;;;;24.88;17.92;101585.86;105500;1296;59363;-84
2023/05/30 09:31:58;;;;;;;2.00;1.70;;;;;;;24.30;18.10;101585.83;105414;1297;73310;-84
2023/05/30 09:34:57;;;;;;;2.30;1.20;;;;;;;23.93;18.42;101582.13;105310;1297;68415;-83
2023/05/30 09:37:43;;;;;;;1.90;1.20;;;;;;;23.67;18.75;101579.17;105399;1297;72178;-83
2023/05/30 09:40:30;;;;;;;3.00;1.50;;;;;;;23.23;19.11;101582.14;105489;1300;59436;-84
2023/05/30 09:43:29;;;;;;;;;;;;;;;22.85;19.21;101577.83;105419;1298;59076;-83
2023/05/30 09:46:15;;;;;;;7.30;3.50;;;;;;;22.64;19.50;101582.06;105420;1297;74885;-84
2023/05/30 09:49:11;;;;;;;2.50;1.50;;;;;;;22.48;19.12;101587.23;105400;1297;68694;-84
2023/05/30 09:51:59;;;;;;;3.70;1.60;;;;;;;22.29;19.41;101586.80;105441;1297;72963;-83
2023/05/30 09:54:45;;;;;;;1.70;1.30;;;;;;;22.09;19.73;101578.31;105343;1297;59280;-83
2023/05/30 09:57:36;;;;;;;2.40;1.10;;;;;;;21.85;20.08;101577.73;105197;1298;59866;-83
2023/05/30 10:00:24;;;;;;;2.20;1.40;;;;;;;21.63;20.02;101579.27;105453;1297;73465;-83
2023/05/30 10:03:10;;;;;;;3.70;1.40;;;;;;;21.53;20.12;101579.39;105322;1296;69253;-84
2023/05/30 10:05:56;;;;;;;4.20;1.40;;;;;;;21.45;20.31;101588.52;105342;1297;73314;-84
2023/05/30 10:08:45;;;;;;;5.00;1.20;;;;;;;21.32;20.53;101594.05;105392;1297;59375;-83
2023/05/30 10:11:31;;;;;;;4.20;1.10;;;;;;;21.28;20.67;101592.16;105494;1297;59138;-84
2023/05/30 10:14:17;;;;;;;5.00;1.40;;;;;;;21.27;20.92;101590.98;105525;1297;74845;-83
2023/05/30 10:17:06;;;;;;;1.90;1.10;;;;;;;21.18;20.95;101596.95;105439;1296;67536;-83
2023/05/30 10:20:06;;;;;;;2.20;1.00;;;;;;;21.10;21.03;101589.56;105445;1296;71358;-87
2023/05/30 10:22:52;;;;;;;2.70;1.20;;;;;;;21.01;21.24;101587.86;105355;1299;59281;-87
2023/05/30 10:25:45;;;;;;;1.40;0.80;;;;;;;20.95;21.40;101584.64;105436;1297;59073;-86
2023/05/30 10:28:34;;;;;;;3.80;1.10;;;;;;;20.96;21.42;101578.11;105341;1297;74548;-86
2023/05/30 10:31:24;;;;;;;4.30;1.10;;;;;;;21.01;21.74;101589.96;105293;1297;67698;-87
2023/05/30 10:34:13;;;;;;;5.30;1.10;;;;;;;21.08;21.76;101584.05;105306;1297;72055;-87
2023/05/30 10:37:01;;;;;;;1.90;1.00;;;;;;;21.08;21.70;101591.23;105351;1297;59206;-87
2023/05/30 10:40:23;;;;;;;2.60;1.40;;;;;;;21.05;21.87;101592.09;105392;1300;59067;-86
2023/05/30 10:43:32;;;;;;;1.80;1.10;;;;;;;21.04;22.21;101587.20;105414;1297;75664;-87
2023/05/30 10:46:27;;;;;;;2.30;1.10;;;;;;;21.10;22.35;101590.80;105398;1297;67329;-86
2023/05/30 10:49:18;;;;;;;3.60;1.30;;;;;;;21.07;22.42;101588.48;105435;1297;71414;-87
2023/05/30 10:52:07;;;;;;;2.30;1.10;;;;;;;21.07;22.72;101579.37;105299;1297;59119;-86
2023/05/30 10:54:53;;;;;;;4.50;1.30;;;;;;;21.10;22.73;101576.94;105314;1297;59655;-87
2023/05/30 10:57:41;;;;;;;;;;;;;;;21.17;22.80;101582.97;105442;1297;73451;-87
2023/05/30 11:00:29;;;;;;;3.70;1.40;;;;;;;21.22;22.93;101580.50;105417;1297;68556;-86
2023/05/30 11:03:35;;;;;;;2.70;1.00;;;;;;;21.27;23.01;101582.03;105277;1296;71298;-87
2023/05/30 11:06:21;;;;;;;1.70;1.10;;;;;;;21.22;23.28;101571.52;105349;1297;59051;-87
2023/05/30 11:09:09;;;;;;;6.10;1.30;;;;;;;21.17;23.22;101571.38;105523;1296;59179;-87
2023/05/30 11:11:57;;;;;;;2.30;1.10;;;;;;;21.14;23.32;101573.77;105468;1297;73768;-87
2023/05/30 11:14:53;;;;;;;3.10;1.10;;;;;;;21.17;23.43;101577.88;105346;1297;68636;-87
2023/05/30 11:17:40;;;;;;;3.10;1.40;;;;;;;21.18;23.63;101578.53;105517;1297;71415;-87
2023/05/30 11:20:27;;;;;;;1.80;1.10;;;;;;;21.21;23.80;101570.17;105333;1302;59130;-87
2023/05/30 11:23:12;;;;;;;2.90;1.40;;;;;;;21.28;23.82;101570.20;105284;1297;59065;-87
2023/05/30 11:25:58;;;;;;;2.60;1.40;;;;;;;21.30;23.94;101564.35;105441;1297;73330;-87
2023/05/30 11:28:45;;;;;;;5.60;2.00;;;;;;;21.30;24.15;101561.35;105419;1297;67905;-87
2023/05/30 11:31:32;;;;;;;3.90;1.30;;;;;;;21.34;24.13;101567.44;105420;1298;71244;-85
2023/05/30 11:34:18;;;;;;;2.90;2.50;;;;;;;21.40;24.21;101566.32;105412;1297;59431;-84
2023/05/30 11:37:05;;;;;;;11.20;9.90;;;;;;;21.44;24.29;101568.59;105306;1297;59089;-83
2023/05/30 11:39:57;;;;;;;5.50;2.00;;;;;;;21.46;24.49;101567.25;105237;1297;74536;-83
2023/05/30 11:42:43;;;;;;;4.40;1.60;;;;;;;21.53;24.56;101564.50;105499;1300;67594;-83
2023/05/30 11:45:30;;;;;;;3.20;1.80;;;;;;;21.59;24.57;101566.82;105487;1298;71131;-83
2023/05/30 11:48:17;;;;;;;5.20;2.20;;;;;;;21.64;24.88;101568.71;105419;1297;58976;-83
2023/05/30 11:51:06;;;;;;;2.70;1.60;;;;;;;21.72;24.85;101562.70;105384;1297;59696;-84
2023/05/30 11:53:52;;;;;;;4.50;1.60;;;;;;;21.77;25.06;101560.20;105432;1300;73390;-83
2023/05/30 11:56:38;;;;;;;5.00;1.90;;;;;;;21.80;25.11;101567.25;105509;1297;67467;-83
2023/05/30 11:59:26;;;;;;;5.10;1.60;;;;;;;21.78;25.11;101560.64;105449;1296;72086;-83
2023/05/30 12:02:12;;;;;;;6.60;1.90;;;;;;;21.77;25.23;101559.11;105445;1297;59055;-83
2023/05/30 12:05:01;;;;;;;6.80;1.60;;;;;;;21.79;25.25;101557.63;105394;1302;59056;-83
2023/05/30 12:07:52;;;;;;;8.30;1.20;;;;;;;21.76;25.39;101561.08;105466;1297;74538;-83
2023/05/30 12:10:38;;;;;;;8.80;1.00;;;;;;;21.77;25.50;101568.95;105588;1298;67278;-83
2023/05/30 12:13:26;;;;;;;2.90;1.30;;;;;;;21.85;25.84;101568.04;105424;1297;71246;-85
2023/05/30 12:16:13;;;;;;;5.60;1.60;;;;;;;21.92;25.60;101565.94;105529;1300;59131;-86
2023/05/30 12:18:59;;;;;;;2.30;1.30;;;;;;;21.91;25.79;101564.56;105568;1297;60039;-86
2023/05/30 12:21:45;;;;;;;6.60;1.70;;;;;;;21.93;25.94;101558.00;105541;1297;73412;-85
2023/05/30 12:24:38;;;;;;;4.90;1.40;;;;;;;21.96;25.90;101557.16;105471;1298;68915;-86
2023/05/30 12:27:26;;;;;;;3.60;1.90;;;;;;;21.91;25.93;101556.17;105450;1297;72542;-86
2023/05/30 12:30:13;;;;;;;5.20;2.40;;;;;;;21.92;26.19;101557.86;105326;1300;59514;-86
2023/05/30 12:32:59;;;;;;;4.40;2.20;;;;;;;22.00;26.14;101557.48;105467;1298;60601;-86
2023/05/30 12:35:46;;;;;;;4.30;1.40;;;;;;;22.05;26.27;101556.89;105524;1297;73393;-85
2023/05/30 12:38:33;;;;;;;3.00;1.40;;;;;;;22.10;26.36;101558.92;105440;1297;69609;-88
2023/05/30 12:41:26;;;;;;;31.20;3.90;;;;;;;22.16;26.54;101562.88;105426;1296;71389;-83
2023/05/30 12:44:19;;;;;;;3.10;1.40;;;;;;;22.16;26.31;101552.15;105512;1297;58759;-83
2023/05/30 12:47:05;;;;;;;7.90;1.60;;;;;;;22.17;26.47;101558.27;105445;1296;58939;-83
2023/05/30 12:49:52;;;;;;;3.20;1.50;;;;;;;22.13;26.47;101561.93;105481;1297;74447;-84
2023/05/30 12:52:38;;;;;;;7.00;1.00;;;;;;;22.08;26.47;101561.66;105400;1297;67154;-83
2023/05/30 12:55:24;;;;;;;3.70;1.20;;;;;;;22.08;26.66;101559.73;105587;1297;71394;-83